Air Navigation Services of Czech Republic
Airport: LKNA Updated:  13.11.2018 21:00:07  UTC
 METAR LKNA 13.11. 21:00 ...
METAR LKNA 132100Z 29007KT CAVOK 05/04 Q1028 RMK BLU=
 TAF LKNA 13.11. 17:00 ...
TAF LKNA 131700Z 1318/1418 32014KT 5000 BR NSC      BECMG 1320/1322 32008KT CAVOK=